Latest Coastal Weather Observations for Portland Airport

IDV60701

Issued at 11:52 pm EST Tuesday 27 June 2017 (issued every 10 minutes, with the page automatically refreshed every 10 minutes)

About coastal observations | Map of coastal stations | Coastal observations for VIC | Marine services | Other Formats
Station Details ID: 090171 Name: CASHMORE AIRPORT Lat: -38.31 Lon: 141.47 Height: 80.9 m
Data from the previous 72 hours. | See also: Recent months at Portland Airport
Date/Time
EST
Temp
°C
Wind Pressure Rain since
9am
mm
Weather Cloud Vis
km
Sea
Height
m
Swell
Dir  Spd
kts
Gust
kts
hPa Trend Height
m
Period
s
Dir
27/11:30pm 9.6 NNW 5 7 1021.2 - 1.0 - Partly cloudy 10 - - - -
27/11:00pm 9.6 N 6 9 1021.4 - 1.0 - Partly cloudy 10 - - - -
27/10:30pm 9.4 N 6 8 1021.3 - 1.0 - Cloudy 10 - - - -
27/10:00pm 8.8 N 6 7 1021.2 - 1.0 - Cloudy 10 - - - -
27/09:30pm 8.4 N 5 7 1021.1 - 1.0 - Cloudy 10 - - - -
27/09:00pm 8.3 N 5 7 1021.1 - 1.0 Recent precip. Mostly clear 10 - - - -
27/08:30pm 8.3 N 5 7 1021.1 - 1.0 - - 10 - - - -
27/08:00pm 8.9 N 6 7 1021.2 - 0.8 - Partly cloudy 10 - - - -
27/07:30pm 9.5 N 6 9 1021.2 - 0.8 - Partly cloudy 10 - - - -
27/07:00pm 9.6 N 6 8 1021.2 - 0.8 - Partly cloudy 10 - - - -
27/06:30pm 10.1 N 7 9 1021.1 - 0.8 - Partly cloudy 10 - - - -
27/06:00pm 10.8 N 6 9 1021.1 - 0.8 Recent precip. Cloudy 10 - - - -
27/05:30pm 11.5 NNW 5 7 1021.2 - 0.4 - Partly cloudy 10 - - - -
27/05:00pm 12.1 N 6 8 1020.9 - 0.0 - Partly cloudy 10 - - - -
27/04:30pm 12.5 N 6 8 1020.9 - 0.0 - Partly cloudy 10 - - - -
27/04:00pm 12.9 N 8 11 1021.0 - 0.0 - Cloudy 10 - - - -
27/03:30pm 13.0 NNW 9 13 1021.2 - 0.0 - Partly cloudy 10 - - - -
27/03:00pm 13.1 NNW 8 13 1021.1 - 0.0 - Cloudy 10 - - - -
27/02:30pm 13.6 N 9 12 1021.2 - 0.0 - Partly cloudy 10 - - - -
27/02:00pm 13.7 NNW 11 16 1021.4 - 0.0 - Partly cloudy 10 - - - -
27/01:30pm 13.5 NNW 9 12 1021.9 - 0.0 - Partly cloudy 10 - - - -
27/01:00pm 12.8 NNW 10 13 1022.3 - 0.0 - Partly cloudy 10 - - - -
27/12:30pm 13.3 NNW 9 11 1022.7 - 0.0 - Partly cloudy 10 - - - -
27/12:00pm 12.4 NNW 9 12 1023.3 - 0.0 - Cloudy 10 - - - -
27/11:30am 12.2 N 9 13 1023.6 - 0.0 - Cloudy 10 - - - -
27/11:00am 10.7 N 7 11 1024.0 - 0.0 - Cloudy 10 - - - -
27/10:30am 9.9 NNE 6 8 1024.3 - 0.0 - Cloudy 10 - - - -
27/10:00am 9.3 N 6 8 1024.2 - 0.0 - Cloudy 10 - - - -
27/09:30am 8.9 N 5 8 1024.1 - 0.0 - Cloudy 10 - - - -
27/09:00am 8.3 N 6 7 1024.1 - 0.0 - Cloudy 10 - - - -
27/08:30am 7.9 NNE 5 7 1024.1 - 0.0 - Cloudy 10 - - - -
27/08:00am 7.9 NNE 5 6 1024.0 - 0.0 - Cloudy 10 - - - -
27/07:30am 7.8 N 5 7 1024.0 - 0.0 - Cloudy 10 - - - -
27/07:00am 7.8 N 4 5 1024.1 - 0.0 - Cloudy 10 - - - -
27/06:30am 8.0 NNE 6 7 1024.0 - 0.0 - Cloudy 10 - - - -
27/06:00am 8.0 NNW 5 7 1024.0 - 0.0 - Cloudy 10 - - - -
27/05:30am 7.9 N 5 7 1024.0 - 0.0 - Cloudy 10 - - - -
27/05:00am 7.9 N 5 6 1023.9 - 0.0 - Cloudy 10 - - - -
27/04:30am 8.0 NNE 5 7 1024.1 - 0.0 - Cloudy 10 - - - -
27/04:00am 8.0 NNE 5 7 1024.3 - 0.0 - Cloudy 10 - - - -
27/03:30am 8.1 NNE 5 6 1024.7 - 0.0 - Cloudy 10 - - - -
27/03:00am 8.1 N 5 6 1025.0 - 0.0 - Cloudy 10 - - - -
27/02:30am 8.2 N 5 7 1025.0 - 0.0 - Cloudy 10 - - - -
27/02:00am 7.9 NNE 6 7 1025.0 - 0.0 - Cloudy 10 - - - -
27/01:30am 7.7 NNE 5 6 1024.9 - 0.0 - Cloudy 10 - - - -
27/01:00am 7.6 N 5 6 1025.3 - 0.0 - Cloudy 10 - - - -
27/12:30am 7.1 N 4 5 1025.5 - 0.0 - Cloudy 10 - - - -
27/12:00am 7.1 N 5 6 1025.7 - 0.0 - Cloudy 10 - - - -
 
Date/Time
EST
Temp
°C
Wind Pressure Rain since
9am
mm
Weather Cloud Vis
km
Sea
Height
m
Swell
Dir  Spd
kts
Gust
kts
hPa Trend Height
m
Period
s
Dir
26/11:30pm 6.6 N 5 5 1025.8 - 0.0 - Cloudy 10 - - - -
26/11:00pm 5.5 N 3 5 1025.8 - 0.0 - Partly cloudy 10 - - - -
26/10:30pm 5.7 NNW 6 8 1026.0 - 0.0 - Partly cloudy 10 - - - -
26/10:00pm 6.3 CALM 0 0 1025.8 - 0.0 - Partly cloudy 10 - - - -
26/09:30pm 7.4 CALM 0 2 1026.0 - 0.0 - Partly cloudy 10 - - - -
26/09:00pm 8.6 NNE 1 4 1026.2 - 0.0 - Mostly cloudy 10 - - - -
26/08:30pm 8.9 N 1 3 1026.3 - 0.0 - Cloudy 10 - - - -
26/08:00pm 9.3 N 4 5 1026.1 - 0.0 - Cloudy 10 - - - -
26/07:30pm 9.4 NNE 4 5 1026.0 - 0.0 - Partly cloudy 10 - - - -
26/07:00pm 9.5 NNW 5 7 1025.7 - 0.0 - Partly cloudy 10 - - - -
26/06:30pm 9.5 N 4 5 1025.4 - 0.0 - Cloudy 10 - - - -
26/06:00pm 9.5 SW 1 4 1025.5 - 0.0 - Cloudy 10 - - - -
26/05:30pm 10.3 CALM 0 0 1025.2 - 0.0 - Cloudy 10 - - - -
26/05:00pm 10.7 SW 3 4 1025.0 - 0.0 - Partly cloudy 10 - - - -
26/04:30pm 11.3 SSW 4 6 1024.9 - 0.0 - Partly cloudy 10 - - - -
26/04:00pm 12.0 WSW 5 7 1024.7 - 0.0 - Partly cloudy 10 - - - -
26/03:30pm 12.9 SSW 5 7 1024.5 - 0.0 - Cloudy 10 - - - -
26/03:00pm 12.2 SSE 5 8 1024.5 - 0.0 - Cloudy 10 - - - -
26/02:30pm 11.6 S 5 6 1024.4 - 0.0 - Cloudy 10 - - - -
26/02:00pm 11.4 SSW 5 8 1024.6 - 0.0 - Partly cloudy 10 - - - -
26/01:30pm 11.8 SW 5 8 1024.6 - 0.0 - Partly cloudy 10 - - - -
26/01:00pm 12.0 S 5 8 1024.6 - 0.0 - Partly cloudy 10 - - - -
26/12:30pm 11.3 SSW 6 10 1024.9 - 0.0 - Partly cloudy 10 - - - -
26/12:00pm 10.2 SW 6 10 1025.2 - 0.0 - Cloudy 8 - - - -
26/11:30am 11.0 SW 5 6 1025.3 - 0.0 - Cloudy 10 - - - -
26/11:00am 10.9 SW 5 7 1025.2 - 0.0 - Cloudy 10 - - - -
26/10:30am 11.1 ENE 1 4 1025.1 - 0.0 - Partly cloudy 10 - - - -
26/10:00am 9.6 W 1 6 1024.8 - 0.0 - Partly cloudy 10 - - - -
26/09:30am 9.4 CALM 0 0 1024.3 - 0.0 - Partly cloudy 10 - - - -
26/09:00am 8.6 SW 3 6 1023.9 - 4.2 - Cloudy 10 - - - -
26/08:30am 5.9 W 3 6 1023.3 - 4.2 - Partly cloudy 10 - - - -
26/08:00am 4.7 CALM 0 0 1023.0 - 4.2 - Partly cloudy 10 - - - -
26/07:30am 4.8 CALM 0 0 1022.7 - 4.2 - Partly cloudy 10 - - - -
26/07:00am 5.4 WSW 2 4 1022.5 - 4.2 - Partly cloudy 10 - - - -
26/06:30am 5.0 WNW 3 4 1022.0 - 4.2 - Partly cloudy 10 - - - -
26/06:00am 5.4 W 3 5 1021.7 - 4.2 - - 10 - - - -
26/05:30am 5.3 WSW 4 6 1021.5 - 4.2 - - 10 - - - -
26/05:00am 5.8 WSW 5 6 1021.2 - 4.2 - Partly cloudy 10 - - - -
26/04:30am 6.1 WNW 1 4 1021.1 - 4.2 - Partly cloudy 10 - - - -
26/04:00am 6.4 W 4 5 1021.0 - 4.2 - Partly cloudy 10 - - - -
26/03:30am 6.9 WSW 4 5 1020.9 - 4.2 - Partly cloudy 10 - - - -
26/03:00am 8.8 SW 7 12 1020.8 - 4.2 - Cloudy 10 - - - -
26/02:30am 9.0 W 6 9 1020.5 - 4.2 - Partly cloudy 10 - - - -
26/02:00am 8.9 W 7 10 1020.4 - 4.2 - Partly cloudy 10 - - - -
26/01:30am 7.8 WSW 4 5 1020.0 - 4.2 - Partly cloudy 10 - - - -
26/01:00am 8.1 WSW 5 8 1019.9 - 4.2 - Partly cloudy 10 - - - -
26/12:30am 7.1 WSW 5 6 1019.7 - 4.2 - Partly cloudy 10 - - - -
26/12:00am 6.1 WSW 4 5 1019.5 - 4.2 - Partly cloudy 10 - - - -
 
Date/Time
EST
Temp
°C
Wind Pressure Rain since
9am
mm
Weather Cloud Vis
km
Sea
Height
m
Swell
Dir  Spd
kts
Gust
kts
hPa Trend Height
m
Period
s
Dir
25/11:30pm 6.7 WSW 4 5 1019.4 - 4.2 - Partly cloudy 10 - - - -
25/11:00pm 6.9 WSW 4 5 1019.2 - 4.2 - Partly cloudy 10 - - - -
25/10:30pm 8.2 WSW 5 7 1019.2 - 4.2 - Partly cloudy 10 - - - -
25/10:00pm 9.4 SW 7 8 1019.3 - 4.2 - Cloudy 10 - - - -
25/09:30pm 9.1 SW 7 8 1019.1 - 4.2 - Partly cloudy 10 - - - -
25/09:00pm 9.3 SW 7 8 1018.7 - 4.2 - Mostly cloudy 10 - - - -
25/08:30pm 9.2 SW 6 9 1018.4 - 4.2 - Partly cloudy 10 - - - -
25/08:00pm 8.7 WSW 5 6 1018.1 - 4.2 - Partly cloudy 10 - - - -
25/07:30pm 9.6 WSW 8 13 1017.9 - 4.2 - Partly cloudy 10 - - - -
25/07:24pm 9.7 SW 9 13 1017.8 - 4.2 - Partly cloudy 10 - - - -
25/07:08pm 10.1 SW 9 16 1017.6 - 4.0 - Partly cloudy 6 - - - -
25/07:00pm 10.3 SW 6 8 1017.4 - 3.4 - Partly cloudy 10 - - - -
25/06:30pm 10.0 SW 7 10 1016.9 - 3.4 - Partly cloudy 10 - - - -
25/06:00pm 10.4 SW 9 17 1016.5 - 3.4 Rain Cloudy 10 - - - -
25/05:30pm 10.3 SW 8 12 1016.1 - 3.2 - Partly cloudy 10 - - - -
25/05:09pm 10.5 W 7 9 1015.8 - 3.2 - Partly cloudy 10 - - - -
25/05:00pm 10.5 W 8 11 1015.8 - 3.2 - Partly cloudy 7 - - - -
25/04:50pm 10.7 WSW 7 11 1015.7 - 3.0 - Partly cloudy 6 - - - -
25/04:30pm 10.8 W 7 10 1015.5 - 3.0 - Partly cloudy 10 - - - -
25/04:18pm 10.6 WSW 9 12 1015.5 - 3.0 - Partly cloudy 10 - - - -
25/04:04pm 10.6 WSW 13 18 1015.5 - 2.8 - Partly cloudy 6 - - - -
25/04:00pm 10.8 SW 14 20 1015.5 - 2.6 - Partly cloudy 10 - - - -
25/03:30pm 11.5 W 14 20 1015.1 - 2.4 - Partly cloudy 10 - - - -
25/03:16pm 11.4 W 12 17 1015.0 - 2.4 - Partly cloudy 10 - - - -
25/03:00pm 10.6 WSW 17 23 1015.1 - 2.4 Rain Cloudy 5 - - - -
25/02:58pm 10.6 WSW 17 26 1015.1 - 2.2 - Partly cloudy 6 - - - -
25/02:46pm 11.9 W 17 29 1014.6 - 2.2 - Partly cloudy 10 - - - -
25/02:30pm 12.4 W 16 22 1014.7 - 2.2 - Partly cloudy 10 - - - -
25/02:01pm 11.6 W 19 29 1014.6 - 2.0 - Partly cloudy 10 - - - -
25/02:00pm 11.8 W 19 26 1014.5 - 2.0 - Partly cloudy 10 - - - -
25/01:37pm 12.1 W 18 23 1014.6 - 2.0 - Partly cloudy 10 - - - -
25/01:30pm 11.8 W 18 26 1014.7 - 2.0 - Partly cloudy 9 - - - -
25/01:26pm 11.4 W 19 29 1014.7 - 2.0 - Partly cloudy 6 - - - -
25/01:17pm 12.6 W 18 28 1014.7 - 1.8 - Partly cloudy 10 - - - -
25/01:00pm 12.8 WNW 19 28 1014.6 - 1.8 - Partly cloudy 10 - - - -
25/12:53pm 12.7 WNW 17 28 1014.5 - 1.8 - Partly cloudy 10 - - - -
25/12:30pm 11.5 WNW 13 19 1014.9 - 1.8 - Partly cloudy 10 - - - -
25/12:10pm 11.1 NW 15 21 1015.0 - 1.4 - Partly cloudy 5 - - - -
25/12:00pm 11.3 NW 14 23 1015.1 - 0.4 - Cloudy 10 - - - -
25/11:30am 11.3 NW 14 19 1015.5 - 0.4 - Partly cloudy 10 - - - -
25/11:00am 11.0 NW 12 18 1015.7 - 0.4 - Partly cloudy 10 - - - -
25/10:30am 9.8 NW 14 19 1015.6 - 0.4 - Partly cloudy 10 - - - -
25/10:00am 8.8 NNW 10 15 1015.6 - 0.2 - Partly cloudy 10 - - - -
25/09:30am 8.5 NNW 9 14 1015.4 - 0.2 - Partly cloudy 10 - - - -
25/09:00am 8.2 NW 11 18 1015.4 - 7.8 Recent precip. Cloudy 10 - - - -
25/08:30am 8.2 NW 10 15 1015.1 - 7.6 - Partly cloudy 10 - - - -
25/08:12am 8.0 NW 8 12 1015.2 - 7.6 - Partly cloudy 10 - - - -
25/08:11am 8.0 NW 8 12 1015.1 - 7.6 - Partly cloudy 10 - - - -
25/08:00am 8.1 NW 11 15 1015.1 - 7.6 - Partly cloudy 5 - - - -
25/07:49am 8.2 NW 10 13 1015.3 - 7.4 - Partly cloudy 3 - - - -
25/07:37am 8.4 NW 11 16 1014.9 - 6.2 - Partly cloudy 6 - - - -
25/07:34am 8.3 NW 11 16 1014.9 - 6.0 - Partly cloudy 8 - - - -
25/07:30am 8.2 NW 11 15 1015.0 - 5.8 - Partly cloudy 10 - - - -
25/07:06am 7.8 NW 10 16 1015.1 - 5.8 - Partly cloudy 10 - - - -
25/07:00am 8.0 WNW 11 16 1015.0 - 5.8 - Partly cloudy 10 - - - -
25/06:51am 8.1 WNW 10 15 1014.9 - 5.6 - Partly cloudy 4 - - - -
25/06:41am 7.3 NNW 7 12 1014.9 - 5.4 - Partly cloudy 6 - - - -
25/06:36am 7.3 NW 7 11 1014.9 - 5.2 - Partly cloudy 9 - - - -
25/06:30am 7.2 NW 8 13 1014.8 - 5.2 - Partly cloudy 10 - - - -
25/06:16am 7.3 NNW 7 10 1014.9 - 5.0 - Partly cloudy 6 - - - -
25/06:00am 7.1 NNW 7 10 1014.7 - 4.8 - Cloudy 10 - - - -
25/05:30am 7.0 NNW 8 11 1014.7 - 4.8 - Partly cloudy 10 - - - -
25/05:02am 7.0 NNW 7 10 1014.7 - 4.8 - Partly cloudy 10 - - - -
25/05:00am 7.0 NNW 8 10 1014.8 - 4.8 - Partly cloudy 10 - - - -
25/04:46am 7.2 NNW 8 10 1014.9 - 4.8 - Partly cloudy 10 - - - -
25/04:36am 8.0 NW 9 14 1014.8 - 4.8 - Partly cloudy 10 - - - -
25/04:30am 8.0 NW 10 14 1014.8 - 4.8 - Partly cloudy 10 - - - -
25/04:21am 7.7 NW 8 15 1014.8 - 4.8 - Partly cloudy 6 - - - -
25/04:11am 7.1 NNW 6 8 1015.0 - 4.8 - Partly cloudy 10 - - - -
25/04:00am 7.4 NNW 8 11 1015.0 - 4.6 - Partly cloudy 6 - - - -
25/03:58am 7.4 NNW 8 11 1015.1 - 4.6 - Partly cloudy 6 - - - -
25/03:56am 7.4 NNW 8 10 1015.1 - 4.4 - Partly cloudy 7 - - - -
25/03:33am 7.6 NNW 8 13 1015.4 - 4.0 - Partly cloudy 6 - - - -
25/03:30am 7.4 NNW 8 12 1015.3 - 4.0 - Partly cloudy 10 - - - -
25/03:24am 7.8 NW 9 12 1015.3 - 3.8 - Partly cloudy 10 - - - -
25/03:07am 7.8 NW 11 18 1015.4 - 3.8 - Partly cloudy 6 - - - -
25/03:04am 7.8 NW 11 18 1015.4 - 3.8 - Partly cloudy 9 - - - -
25/03:00am 7.7 NW 9 14 1015.4 - 3.6 Recent precip. Cloudy 10 - - - -
25/02:49am 7.5 NNW 6 9 1015.6 - 3.6 - Partly cloudy 6 - - - -
25/02:34am 7.5 NNW 6 8 1015.6 - 3.2 - Partly cloudy 10 - - - -
25/02:30am 7.5 NNW 7 9 1015.6 - 3.2 - Partly cloudy 10 - - - -
25/02:21am 7.7 NNW 7 14 1015.7 - 3.2 - Partly cloudy 6 - - - -
25/02:00am 7.7 NW 7 10 1015.7 - 3.0 - Partly cloudy 10 - - - -
25/01:30am 7.2 NW 9 13 1015.8 - 3.0 - Partly cloudy 10 - - - -
25/01:00am 6.8 NNW 8 13 1016.0 - 3.0 - Partly cloudy 10 - - - -
25/12:30am 6.5 NNW 7 10 1016.3 - 2.8 - Partly cloudy 10 - - - -
25/12:00am 6.9 NNW 7 9 1016.3 - 2.8 - Cloudy 10 - - - -

Other Formats:

Comma delimited format used in spreadsheet applications
http://www.bom.gov.au/fwo/IDV60701/IDV60701.94828.axf

JavaScript Object Notation format (JSON) in row-major order
http://www.bom.gov.au/fwo/IDV60701/IDV60701.94828.json